Rifle, Colorado
Current Conditions -  °F | °C
As of 7:13 PM on Saturday 22 Nov 2014 (Local Time) from KRIL Reporting Station
Light Rain Light Rain  
Wind Chill: 31°   Ceiling: 900
Heat Index: 36°   Visibility: 10mi
Dew Point: 33°   Wind: 6mph
Humidity: 89%   Direction: 20°NNE
Pressure: 29.82"   Gusts: NA
Location:  39.53°N, 107.78°W
Report Text: KRIL 230213Z AUTO 02005KT 10SM -RA BKN009 BKN012 OVC018 02/01 A2982 RMK AO2 P0000 T00220006
Loading
Personal Weather Stations






























Interactive Weather Map New forecast layout! Learn more

10-Day Weather Forecast

Advertisements
Track Severe Weather on mobile